sensor_id;sensor_type;location;lat;lon;timestamp;pressure;altitude;pressure_sealevel;temperature;humidity
56713;BME280;42589;45.536;9.032;2023-02-12T00:01:52;101230.81;;;8.52;34.33
56713;BME280;42589;45.536;9.032;2023-02-12T00:04:52;101263.53;;;9.53;33.26
56713;BME280;42589;45.536;9.032;2023-02-12T00:07:54;101248.63;;;9.63;33.64
56713;BME280;42589;45.536;9.032;2023-02-12T00:10:54;101247.72;;;10.12;32.48
56713;BME280;42589;45.536;9.032;2023-02-12T00:13:56;101200.28;;;9.95;33.03
56713;BME280;42589;45.536;9.032;2023-02-12T00:16:57;101224.56;;;10.26;32.00
56713;BME280;42589;45.536;9.032;2023-02-12T00:19:58;101216.22;;;10.19;32.52
56713;BME280;42589;45.536;9.032;2023-02-12T00:23:01;101264.25;;;9.92;33.67
56713;BME280;42589;45.536;9.032;2023-02-12T00:26:10;101242.16;;;10.39;32.59
56713;BME280;42589;45.536;9.032;2023-02-12T00:29:11;101226.78;;;10.32;32.56
56713;BME280;42589;45.536;9.032;2023-02-12T00:32:13;101200.47;;;10.40;32.11
56713;BME280;42589;45.536;9.032;2023-02-12T00:35:18;101239.31;;;10.54;32.25
56713;BME280;42589;45.536;9.032;2023-02-12T00:38:19;101201.78;;;10.34;32.36
56713;BME280;42589;45.536;9.032;2023-02-12T00:41:21;101243.25;;;10.24;33.03
56713;BME280;42589;45.536;9.032;2023-02-12T00:44:22;101247.44;;;10.28;33.42
56713;BME280;42589;45.536;9.032;2023-02-12T00:47:24;101251.19;;;10.37;32.96
56713;BME280;42589;45.536;9.032;2023-02-12T00:50:26;101231.38;;;10.30;32.81
56713;BME280;42589;45.536;9.032;2023-02-12T00:53:27;101230.41;;;10.31;32.80
56713;BME280;42589;45.536;9.032;2023-02-12T00:56:28;101211.50;;;10.22;33.40
56713;BME280;42589;45.536;9.032;2023-02-12T00:59:29;101240.84;;;10.45;33.62
56713;BME280;42589;45.536;9.032;2023-02-12T01:02:31;101224.38;;;10.29;33.16
56713;BME280;42589;45.536;9.032;2023-02-12T01:05:31;101243.22;;;10.37;33.49
56713;BME280;42589;45.536;9.032;2023-02-12T01:08:33;101242.03;;;10.17;33.26
56713;BME280;42589;45.536;9.032;2023-02-12T01:11:34;101243.22;;;10.37;33.30
56713;BME280;42589;45.536;9.032;2023-02-12T01:14:36;101244.66;;;10.30;33.67
56713;BME280;42589;45.536;9.032;2023-02-12T01:17:38;101246.38;;;10.18;33.65
56713;BME280;42589;45.536;9.032;2023-02-12T01:20:39;101239.28;;;10.18;33.39
56713;BME280;42589;45.536;9.032;2023-02-12T01:23:40;101160.78;;;9.66;33.99
56713;BME280;42589;45.536;9.032;2023-02-12T01:26:41;101238.13;;;9.86;34.10
56713;BME280;42589;45.536;9.032;2023-02-12T01:29:45;101217.63;;;9.88;33.96
56713;BME280;42589;45.536;9.032;2023-02-12T01:32:46;101220.09;;;10.02;33.08
56713;BME280;42589;45.536;9.032;2023-02-12T01:35:48;101248.22;;;9.93;33.66
56713;BME280;42589;45.536;9.032;2023-02-12T01:38:50;101231.09;;;9.97;33.58
56713;BME280;42589;45.536;9.032;2023-02-12T01:41:50;101221.03;;;9.90;33.14
56713;BME280;42589;45.536;9.032;2023-02-12T01:48:16;101228.34;;;9.86;34.25
56713;BME280;42589;45.536;9.032;2023-02-12T01:51:19;101237.75;;;9.79;34.32
56713;BME280;42589;45.536;9.032;2023-02-12T01:54:21;101209.78;;;9.62;34.46
56713;BME280;42589;45.536;9.032;2023-02-12T01:57:27;101231.53;;;9.30;34.97
56713;BME280;42589;45.536;9.032;2023-02-12T02:00:30;101187.84;;;9.11;34.60
56713;BME280;42589;45.536;9.032;2023-02-12T02:03:31;101196.19;;;9.30;34.65
56713;BME280;42589;45.536;9.032;2023-02-12T02:06:37;101192.91;;;9.26;34.54
56713;BME280;42589;45.536;9.032;2023-02-12T02:09:39;101167.84;;;9.30;33.90
56713;BME280;42589;45.536;9.032;2023-02-12T02:12:41;101209.38;;;9.56;34.04
56713;BME280;42589;45.536;9.032;2023-02-12T02:16:12;101211.25;;;9.66;34.05
56713;BME280;42589;45.536;9.032;2023-02-12T02:36:14;101209.88;;;9.24;35.80
56713;BME280;42589;45.536;9.032;2023-02-12T02:39:27;101192.03;;;9.39;35.10
56713;BME280;42589;45.536;9.032;2023-02-12T02:43:17;101192.03;;;9.39;34.49
56713;BME280;42589;45.536;9.032;2023-02-12T02:46:11;101172.38;;;8.92;35.28
56713;BME280;42589;45.536;9.032;2023-02-12T02:49:22;101156.91;;;8.86;35.48
56713;BME280;42589;45.536;9.032;2023-02-12T02:52:34;101137.47;;;8.98;34.99
56713;BME280;42589;45.536;9.032;2023-02-12T02:55:42;101179.69;;;9.14;35.50
56713;BME280;42589;45.536;9.032;2023-02-12T02:59:11;101141.06;;;8.97;34.57
56713;BME280;42589;45.536;9.032;2023-02-12T03:02:31;101134.69;;;8.99;35.07
56713;BME280;42589;45.536;9.032;2023-02-12T03:05:41;101174.06;;;8.93;35.81
56713;BME280;42589;45.536;9.032;2023-02-12T03:09:30;101154.22;;;8.98;35.23
56713;BME280;42589;45.536;9.032;2023-02-12T03:12:17;101119.88;;;8.84;34.45
56713;BME280;42589;45.536;9.032;2023-02-12T03:15:39;101154.41;;;9.21;35.17
56713;BME280;42589;45.536;9.032;2023-02-12T03:18:54;101150.22;;;8.80;35.34
56713;BME280;42589;45.536;9.032;2023-02-12T03:22:00;101118.59;;;8.90;34.66
56713;BME280;42589;45.536;9.032;2023-02-12T03:25:06;101140.66;;;8.90;35.01
56713;BME280;42589;45.536;9.032;2023-02-12T03:31:32;101145.25;;;8.88;34.82
56713;BME280;42589;45.536;9.032;2023-02-12T03:34:54;101170.03;;;9.00;35.70
56713;BME280;42589;45.536;9.032;2023-02-12T03:38:58;101169.00;;;8.90;34.88
56713;BME280;42589;45.536;9.032;2023-02-12T03:41:33;101152.44;;;8.99;34.97
56713;BME280;42589;45.536;9.032;2023-02-12T03:44:47;101181.00;;;9.19;35.20
56713;BME280;42589;45.536;9.032;2023-02-12T03:48:12;101165.63;;;9.24;34.77
56713;BME280;42589;45.536;9.032;2023-02-12T03:51:32;101166.91;;;9.19;33.97
56713;BME280;42589;45.536;9.032;2023-02-12T03:54:33;101166.50;;;9.12;34.36
56713;BME280;42589;45.536;9.032;2023-02-12T03:57:42;101171.41;;;9.05;34.35
56713;BME280;42589;45.536;9.032;2023-02-12T04:00:44;101168.53;;;9.09;34.77
56713;BME280;42589;45.536;9.032;2023-02-12T04:03:45;101170.00;;;9.13;34.13
56713;BME280;42589;45.536;9.032;2023-02-12T04:06:48;101174.06;;;9.05;34.52
56713;BME280;42589;45.536;9.032;2023-02-12T04:09:50;101100.91;;;8.01;35.21
56713;BME280;42589;45.536;9.032;2023-02-12T04:13:35;101188.09;;;8.95;35.48
56713;BME280;42589;45.536;9.032;2023-02-12T04:27:40;101190.75;;;8.56;36.58
56713;BME280;42589;45.536;9.032;2023-02-12T04:35:10;101145.31;;;8.23;35.88
56713;BME280;42589;45.536;9.032;2023-02-12T04:37:56;101089.78;;;8.08;35.76
56713;BME280;42589;45.536;9.032;2023-02-12T04:41:04;101174.53;;;8.48;35.98
56713;BME280;42589;45.536;9.032;2023-02-12T04:47:15;101133.81;;;8.49;36.04
56713;BME280;42589;45.536;9.032;2023-02-12T04:50:16;101122.66;;;8.31;35.82
56713;BME280;42589;45.536;9.032;2023-02-12T04:53:18;101115.16;;;8.38;35.03
56713;BME280;42589;45.536;9.032;2023-02-12T04:56:19;101161.59;;;8.69;35.32
56713;BME280;42589;45.536;9.032;2023-02-12T04:59:20;101176.00;;;8.65;35.59
56713;BME280;42589;45.536;9.032;2023-02-12T05:02:21;101128.66;;;8.08;36.39
56713;BME280;42589;45.536;9.032;2023-02-12T05:05:22;101168.16;;;8.38;36.20
56713;BME280;42589;45.536;9.032;2023-02-12T05:08:23;101146.53;;;8.44;35.34
56713;BME280;42589;45.536;9.032;2023-02-12T05:11:25;101179.41;;;8.54;36.48
56713;BME280;42589;45.536;9.032;2023-02-12T05:14:26;101166.16;;;8.54;35.99
56713;BME280;42589;45.536;9.032;2023-02-12T05:17:28;101166.22;;;8.66;35.61
56713;BME280;42589;45.536;9.032;2023-02-12T05:20:29;101102.03;;;7.71;36.30
56713;BME280;42589;45.536;9.032;2023-02-12T05:23:32;101168.16;;;8.38;36.23
56713;BME280;42589;45.536;9.032;2023-02-12T05:26:33;101152.50;;;8.21;36.37
56713;BME280;42589;45.536;9.032;2023-02-12T05:29:35;101174.59;;;8.47;36.39
56713;BME280;42589;45.536;9.032;2023-02-12T05:32:36;101156.78;;;8.36;35.73
56713;BME280;42589;45.536;9.032;2023-02-12T05:35:38;101138.13;;;8.12;36.44
56713;BME280;42589;45.536;9.032;2023-02-12T05:38:39;101174.94;;;8.42;36.62
56713;BME280;42589;45.536;9.032;2023-02-12T05:41:40;101168.69;;;8.56;36.06
56713;BME280;42589;45.536;9.032;2023-02-12T05:44:40;101164.63;;;8.25;36.19
56713;BME280;42589;45.536;9.032;2023-02-12T05:47:42;101089.88;;;7.81;36.80
56713;BME280;42589;45.536;9.032;2023-02-12T05:50:42;101123.25;;;7.97;36.51
56713;BME280;42589;45.536;9.032;2023-02-12T05:53:44;101119.66;;;7.98;36.99
56713;BME280;42589;45.536;9.032;2023-02-12T05:56:46;101153.47;;;8.20;36.26
56713;BME280;42589;45.536;9.032;2023-02-12T05:59:47;101117.22;;;8.07;36.55
56713;BME280;42589;45.536;9.032;2023-02-12T06:02:47;101081.50;;;7.87;36.84
56713;BME280;42589;45.536;9.032;2023-02-12T06:05:50;101120.28;;;8.01;36.39
56713;BME280;42589;45.536;9.032;2023-02-12T06:08:51;101110.03;;;7.97;36.17
56713;BME280;42589;45.536;9.032;2023-02-12T06:11:52;101156.00;;;8.21;36.52
56713;BME280;42589;45.536;9.032;2023-02-12T06:14:54;101140.13;;;8.34;36.00
56713;BME280;42589;45.536;9.032;2023-02-12T06:17:55;101164.22;;;8.31;36.15
56713;BME280;42589;45.536;9.032;2023-02-12T06:20:56;101172.19;;;8.56;36.15
56713;BME280;42589;45.536;9.032;2023-02-12T06:23:56;101156.94;;;8.60;35.37
56713;BME280;42589;45.536;9.032;2023-02-12T06:26:57;101165.81;;;8.59;35.89
56713;BME280;42589;45.536;9.032;2023-02-12T06:29:58;101125.31;;;8.19;36.00
56713;BME280;42589;45.536;9.032;2023-02-12T06:32:59;101149.03;;;8.33;35.97
56713;BME280;42589;45.536;9.032;2023-02-12T06:36:02;101165.09;;;8.44;35.38
56713;BME280;42589;45.536;9.032;2023-02-12T06:39:04;101151.00;;;8.44;35.49
56713;BME280;42589;45.536;9.032;2023-02-12T06:42:04;101179.28;;;8.56;35.50
56713;BME280;42589;45.536;9.032;2023-02-12T06:45:05;101156.13;;;8.32;36.11
56713;BME280;42589;45.536;9.032;2023-02-12T06:48:07;101151.16;;;8.15;35.96
56713;BME280;42589;45.536;9.032;2023-02-12T06:51:17;101177.28;;;8.59;36.22
56713;BME280;42589;45.536;9.032;2023-02-12T06:54:21;101152.78;;;8.43;35.53
56713;BME280;42589;45.536;9.032;2023-02-12T06:57:22;101186.72;;;8.51;35.52
56713;BME280;42589;45.536;9.032;2023-02-12T07:00:23;101165.78;;;8.33;35.82
56713;BME280;42589;45.536;9.032;2023-02-12T07:03:25;101207.94;;;8.76;35.68
56713;BME280;42589;45.536;9.032;2023-02-12T07:06:27;101168.16;;;8.64;35.06
56713;BME280;42589;45.536;9.032;2023-02-12T07:09:28;101215.53;;;8.81;35.67
56713;BME280;42589;45.536;9.032;2023-02-12T07:12:32;101199.31;;;8.98;34.78
56713;BME280;42589;45.536;9.032;2023-02-12T07:15:37;101236.84;;;9.18;35.37
56713;BME280;42589;45.536;9.032;2023-02-12T07:18:39;101190.53;;;8.59;35.67
56713;BME280;42589;45.536;9.032;2023-02-12T07:21:40;101199.56;;;8.82;35.10
56713;BME280;42589;45.536;9.032;2023-02-12T07:24:45;101222.50;;;9.33;34.69
56713;BME280;42589;45.536;9.032;2023-02-12T07:27:46;101214.81;;;9.04;35.62
56713;BME280;42589;45.536;9.032;2023-02-12T07:30:47;101194.06;;;9.22;34.33
56713;BME280;42589;45.536;9.032;2023-02-12T07:33:52;101245.84;;;9.77;34.06
56713;BME280;42589;45.536;9.032;2023-02-12T07:36:54;101229.34;;;9.85;34.08
56713;BME280;42589;45.536;9.032;2023-02-12T07:39:55;101217.63;;;9.64;34.40
56713;BME280;42589;45.536;9.032;2023-02-12T07:42:56;101239.06;;;9.97;34.27
56713;BME280;42589;45.536;9.032;2023-02-12T07:46:08;101186.84;;;9.61;34.80
56713;BME280;42589;45.536;9.032;2023-02-12T07:49:12;101243.72;;;10.18;33.95
56713;BME280;42589;45.536;9.032;2023-02-12T07:52:14;101238.38;;;10.77;33.41
56713;BME280;42589;45.536;9.032;2023-02-12T07:55:15;101233.38;;;10.61;32.81
56713;BME280;42589;45.536;9.032;2023-02-12T07:58:16;101192.75;;;10.13;34.17
56713;BME280;42589;45.536;9.032;2023-02-12T08:01:35;101216.13;;;10.78;33.47
56713;BME280;42589;45.536;9.032;2023-02-12T08:04:39;101233.78;;;10.90;33.31
56713;BME280;42589;45.536;9.032;2023-02-12T08:07:41;101243.84;;;11.09;33.30
56713;BME280;42589;45.536;9.032;2023-02-12T08:10:43;101234.31;;;11.29;33.54
56713;BME280;42589;45.536;9.032;2023-02-12T08:13:47;101232.81;;;11.48;33.44
56713;BME280;42589;45.536;9.032;2023-02-12T08:16:49;101198.84;;;11.18;32.94
56713;BME280;42589;45.536;9.032;2023-02-12T08:19:51;101232.81;;;11.59;32.62
56713;BME280;42589;45.536;9.032;2023-02-12T08:22:52;101209.19;;;11.66;32.30
56713;BME280;42589;45.536;9.032;2023-02-12T08:26:02;101212.72;;;11.98;31.89
56713;BME280;42589;45.536;9.032;2023-02-12T08:32:06;101236.94;;;12.06;32.01
56713;BME280;42589;45.536;9.032;2023-02-12T08:35:09;101255.28;;;12.21;32.33
56713;BME280;42589;45.536;9.032;2023-02-12T08:38:10;101261.38;;;12.44;31.98
56713;BME280;42589;45.536;9.032;2023-02-12T08:41:20;101266.88;;;12.94;31.70
56713;BME280;42589;45.536;9.032;2023-02-12T08:44:22;101271.31;;;13.05;31.02
56713;BME280;42589;45.536;9.032;2023-02-12T08:47:23;101268.22;;;13.09;31.15
56713;BME280;42589;45.536;9.032;2023-02-12T08:50:24;101271.22;;;13.37;30.67
56713;BME280;42589;45.536;9.032;2023-02-12T08:53:25;101268.03;;;13.53;30.23
56713;BME280;42589;45.536;9.032;2023-02-12T08:56:28;101269.75;;;13.63;29.08
56713;BME280;42589;45.536;9.032;2023-02-12T08:59:32;101254.16;;;13.68;29.54
56713;BME280;42589;45.536;9.032;2023-02-12T09:02:34;101285.59;;;13.96;29.25
56713;BME280;42589;45.536;9.032;2023-02-12T09:05:38;101254.75;;;13.91;29.04
56713;BME280;42589;45.536;9.032;2023-02-12T09:08:39;101281.41;;;14.22;28.78
56713;BME280;42589;45.536;9.032;2023-02-12T09:11:40;101282.78;;;14.26;27.99
56713;BME280;42589;45.536;9.032;2023-02-12T09:14:41;101264.22;;;14.34;27.66
56713;BME280;42589;45.536;9.032;2023-02-12T09:17:42;101270.41;;;14.35;27.58
56713;BME280;42589;45.536;9.032;2023-02-12T09:20:43;101285.91;;;14.60;27.06
56713;BME280;42589;45.536;9.032;2023-02-12T09:23:46;101223.81;;;14.37;27.16
56713;BME280;42589;45.536;9.032;2023-02-12T09:26:47;101265.06;;;14.74;27.07
56713;BME280;42589;45.536;9.032;2023-02-12T09:29:48;101280.19;;;15.02;27.67
56713;BME280;42589;45.536;9.032;2023-02-12T09:32:49;101259.91;;;15.00;27.14
56713;BME280;42589;45.536;9.032;2023-02-12T09:35:50;101276.91;;;15.18;27.06
56713;BME280;42589;45.536;9.032;2023-02-12T09:38:51;101286.41;;;14.93;27.22
56713;BME280;42589;45.536;9.032;2023-02-12T09:42:03;101289.63;;;15.44;27.01
56713;BME280;42589;45.536;9.032;2023-02-12T09:45:30;101296.19;;;15.59;27.10
56713;BME280;42589;45.536;9.032;2023-02-12T09:48:44;101301.13;;;15.73;27.38
56713;BME280;42589;45.536;9.032;2023-02-12T09:51:50;101275.44;;;15.71;26.76
56713;BME280;42589;45.536;9.032;2023-02-12T09:54:54;101271.59;;;15.46;27.04
56713;BME280;42589;45.536;9.032;2023-02-12T09:57:55;101272.91;;;15.69;26.30
56713;BME280;42589;45.536;9.032;2023-02-12T10:01:00;101303.22;;;15.97;26.50
56713;BME280;42589;45.536;9.032;2023-02-12T10:04:04;101277.31;;;15.61;26.53
56713;BME280;42589;45.536;9.032;2023-02-12T10:13:35;101317.50;;;16.16;26.88
56713;BME280;42589;45.536;9.032;2023-02-12T10:26:57;101277.00;;;16.45;25.86
56713;BME280;42589;45.536;9.032;2023-02-12T10:30:00;101311.13;;;16.70;26.02
56713;BME280;42589;45.536;9.032;2023-02-12T10:33:08;101273.78;;;16.77;25.42
56713;BME280;42589;45.536;9.032;2023-02-12T10:39:42;101311.44;;;17.11;25.60
56713;BME280;42589;45.536;9.032;2023-02-12T10:42:49;101294.69;;;16.91;25.59
56713;BME280;42589;45.536;9.032;2023-02-12T10:45:50;101300.28;;;16.98;26.26
56713;BME280;42589;45.536;9.032;2023-02-12T10:48:52;101282.28;;;16.90;26.19
56713;BME280;42589;45.536;9.032;2023-02-12T10:52:07;101298.59;;;16.97;26.62
56713;BME280;42589;45.536;9.032;2023-02-12T10:55:31;101286.88;;;17.32;26.31
56713;BME280;42589;45.536;9.032;2023-02-12T10:58:32;101277.66;;;17.35;26.10
56713;BME280;42589;45.536;9.032;2023-02-12T11:01:37;101278.91;;;17.49;26.10
56713;BME280;42589;45.536;9.032;2023-02-12T11:04:38;101282.28;;;17.51;25.98
56713;BME280;42589;45.536;9.032;2023-02-12T11:07:47;101283.06;;;17.77;26.29
56713;BME280;42589;45.536;9.032;2023-02-12T11:10:49;101283.38;;;17.74;25.83
56713;BME280;42589;45.536;9.032;2023-02-12T11:14:02;101278.94;;;17.99;25.50
56713;BME280;42589;45.536;9.032;2023-02-12T11:17:04;101274.91;;;18.20;24.08
56713;BME280;42589;45.536;9.032;2023-02-12T11:20:40;101276.78;;;18.11;24.42
56713;BME280;42589;45.536;9.032;2023-02-12T11:23:48;101264.97;;;18.04;24.98
56713;BME280;42589;45.536;9.032;2023-02-12T11:26:49;101279.75;;;18.00;24.02
56713;BME280;42589;45.536;9.032;2023-02-12T11:33:16;101272.06;;;18.21;22.89
56713;BME280;42589;45.536;9.032;2023-02-12T11:36:26;101270.56;;;18.27;23.37
56713;BME280;42589;45.536;9.032;2023-02-12T11:42:36;101264.16;;;18.36;22.84
56713;BME280;42589;45.536;9.032;2023-02-12T11:45:45;101261.13;;;18.80;22.68
56713;BME280;42589;45.536;9.032;2023-02-12T11:48:48;101231.00;;;18.36;21.84
56713;BME280;42589;45.536;9.032;2023-02-12T11:51:51;101257.94;;;18.68;22.22
56713;BME280;42589;45.536;9.032;2023-02-12T11:54:59;101251.03;;;18.74;21.84
56713;BME280;42589;45.536;9.032;2023-02-12T11:58:11;101210.16;;;18.62;21.94
56713;BME280;42589;45.536;9.032;2023-02-12T12:01:31;101246.25;;;19.09;21.21
56713;BME280;42589;45.536;9.032;2023-02-12T12:04:35;101242.63;;;18.69;21.20
56713;BME280;42589;45.536;9.032;2023-02-12T12:07:42;101235.72;;;18.83;21.18
56713;BME280;42589;45.536;9.032;2023-02-12T12:10:58;101171.66;;;18.21;20.55
56713;BME280;42589;45.536;9.032;2023-02-12T12:14:11;101189.59;;;18.86;20.73
56713;BME280;42589;45.536;9.032;2023-02-12T12:17:16;101228.44;;;18.99;21.12
56713;BME280;42589;45.536;9.032;2023-02-12T12:20:41;101235.38;;;18.94;21.17
56713;BME280;42589;45.536;9.032;2023-02-12T12:23:57;101201.88;;;18.88;20.88
56713;BME280;42589;45.536;9.032;2023-02-12T12:27:05;101226.06;;;18.96;21.06
56713;BME280;42589;45.536;9.032;2023-02-12T12:33:38;101222.38;;;19.45;21.14
56713;BME280;42589;45.536;9.032;2023-02-12T12:47:20;101206.84;;;19.47;20.43
56713;BME280;42589;45.536;9.032;2023-02-12T12:49:55;101203.56;;;19.68;20.30
56713;BME280;42589;45.536;9.032;2023-02-12T12:53:10;101201.25;;;19.88;19.60
56713;BME280;42589;45.536;9.032;2023-02-12T13:19:41;101186.56;;;20.51;19.15
56713;BME280;42589;45.536;9.032;2023-02-12T13:26:17;101175.47;;;20.46;19.52
56713;BME280;42589;45.536;9.032;2023-02-12T13:29:22;101140.28;;;20.02;20.11
56713;BME280;42589;45.536;9.032;2023-02-12T13:32:33;101174.50;;;20.24;19.79
56713;BME280;42589;45.536;9.032;2023-02-12T13:35:40;101175.00;;;20.43;19.19
56713;BME280;42589;45.536;9.032;2023-02-12T13:39:17;101178.66;;;20.50;19.48
56713;BME280;42589;45.536;9.032;2023-02-12T13:46:04;101172.06;;;20.29;20.08
56713;BME280;42589;45.536;9.032;2023-02-12T13:52:53;101180.81;;;20.54;19.80
56713;BME280;42589;45.536;9.032;2023-02-12T14:02:40;101198.97;;;20.60;19.62
56713;BME280;42589;45.536;9.032;2023-02-12T14:05:41;101189.63;;;20.48;19.36
56713;BME280;42589;45.536;9.032;2023-02-12T14:09:19;101200.22;;;20.73;19.22
56713;BME280;42589;45.536;9.032;2023-02-12T14:12:13;101199.38;;;20.72;19.40
56713;BME280;42589;45.536;9.032;2023-02-12T14:15:28;101210.47;;;20.92;19.75
56713;BME280;42589;45.536;9.032;2023-02-12T14:21:34;101211.66;;;20.60;20.02
56713;BME280;42589;45.536;9.032;2023-02-12T14:30:43;101187.53;;;20.35;19.02
56713;BME280;42589;45.536;9.032;2023-02-12T14:33:44;101201.16;;;20.42;18.87
56713;BME280;42589;45.536;9.032;2023-02-12T14:36:47;101210.72;;;20.53;19.23
56713;BME280;42589;45.536;9.032;2023-02-12T14:39:49;101221.03;;;20.49;19.21
56713;BME280;42589;45.536;9.032;2023-02-12T14:43:34;101212.91;;;20.87;19.30
56713;BME280;42589;45.536;9.032;2023-02-12T14:46:59;101204.81;;;20.26;19.31
56713;BME280;42589;45.536;9.032;2023-02-12T14:50:10;101216.31;;;20.66;18.89
56713;BME280;42589;45.536;9.032;2023-02-12T14:53:28;101179.81;;;20.55;19.17
56713;BME280;42589;45.536;9.032;2023-02-12T14:56:38;101226.44;;;20.26;20.00
56713;BME280;42589;45.536;9.032;2023-02-12T14:59:43;101224.13;;;20.61;18.62
56713;BME280;42589;45.536;9.032;2023-02-12T15:02:47;101190.44;;;20.49;18.97
56713;BME280;42589;45.536;9.032;2023-02-12T15:06:06;101238.00;;;20.35;19.95
56713;BME280;42589;45.536;9.032;2023-02-12T15:09:20;101243.53;;;20.41;19.84
56713;BME280;42589;45.536;9.032;2023-02-12T15:12:56;101216.44;;;20.50;20.20
56713;BME280;42589;45.536;9.032;2023-02-12T15:22:41;101262.03;;;20.30;21.03
56713;BME280;42589;45.536;9.032;2023-02-12T15:25:42;101263.59;;;20.24;21.44
56713;BME280;42589;45.536;9.032;2023-02-12T15:28:49;101269.81;;;19.62;21.95
56713;BME280;42589;45.536;9.032;2023-02-12T15:32:00;101236.94;;;19.28;21.70
56713;BME280;42589;45.536;9.032;2023-02-12T15:35:21;101249.66;;;19.89;21.60
56713;BME280;42589;45.536;9.032;2023-02-12T15:38:35;101243.06;;;19.53;22.18
56713;BME280;42589;45.536;9.032;2023-02-12T15:41:39;101276.88;;;20.03;21.92
56713;BME280;42589;45.536;9.032;2023-02-12T15:44:41;101284.75;;;20.12;21.58
56713;BME280;42589;45.536;9.032;2023-02-12T15:47:43;101279.84;;;19.85;22.31
56713;BME280;42589;45.536;9.032;2023-02-12T15:50:52;101263.84;;;18.80;23.37
56713;BME280;42589;45.536;9.032;2023-02-12T15:53:55;101240.56;;;19.04;23.26
56713;BME280;42589;45.536;9.032;2023-02-12T15:56:56;101246.88;;;19.35;23.08
56713;BME280;42589;45.536;9.032;2023-02-12T16:00:15;101288.25;;;19.51;23.15
56713;BME280;42589;45.536;9.032;2023-02-12T16:03:26;101288.81;;;19.38;23.38
56713;BME280;42589;45.536;9.032;2023-02-12T16:06:30;101290.28;;;19.48;23.45
56713;BME280;42589;45.536;9.032;2023-02-12T16:09:34;101241.13;;;19.38;23.17
56713;BME280;42589;45.536;9.032;2023-02-12T16:12:36;101260.34;;;19.35;22.82
56713;BME280;42589;45.536;9.032;2023-02-12T16:15:41;101290.06;;;19.11;22.76
56713;BME280;42589;45.536;9.032;2023-02-12T16:18:42;101243.56;;;19.09;22.34
56713;BME280;42589;45.536;9.032;2023-02-12T16:21:45;101261.28;;;18.95;22.21
56713;BME280;42589;45.536;9.032;2023-02-12T16:24:53;101287.47;;;19.34;22.19
56713;BME280;42589;45.536;9.032;2023-02-12T16:28:14;101290.09;;;18.94;22.29
56713;BME280;42589;45.536;9.032;2023-02-12T16:31:17;101276.06;;;19.15;22.17
56713;BME280;42589;45.536;9.032;2023-02-12T16:34:31;101286.75;;;18.76;22.48
56713;BME280;42589;45.536;9.032;2023-02-12T16:40:39;101322.25;;;18.79;23.14
56713;BME280;42589;45.536;9.032;2023-02-12T16:43:40;101317.88;;;18.95;22.73
56713;BME280;42589;45.536;9.032;2023-02-12T16:46:46;101297.00;;;18.81;22.62
56713;BME280;42589;45.536;9.032;2023-02-12T16:50:15;101333.31;;;18.52;23.74
56713;BME280;42589;45.536;9.032;2023-02-12T16:53:34;101339.06;;;18.41;23.73
56713;BME280;42589;45.536;9.032;2023-02-12T16:56:36;101354.16;;;18.25;24.23
56713;BME280;42589;45.536;9.032;2023-02-12T16:59:38;101323.69;;;17.74;24.26
56713;BME280;42589;45.536;9.032;2023-02-12T17:02:41;101331.31;;;17.79;24.15
56713;BME280;42589;45.536;9.032;2023-02-12T17:05:42;101365.69;;;17.41;24.53
56713;BME280;42589;45.536;9.032;2023-02-12T17:08:44;101365.81;;;17.92;23.87
56713;BME280;42589;45.536;9.032;2023-02-12T17:11:45;101340.47;;;17.08;23.68
56713;BME280;42589;45.536;9.032;2023-02-12T17:14:48;101364.47;;;17.88;22.91
56713;BME280;42589;45.536;9.032;2023-02-12T17:17:49;101354.88;;;17.85;23.09
56713;BME280;42589;45.536;9.032;2023-02-12T17:20:56;101385.28;;;17.77;23.19
56713;BME280;42589;45.536;9.032;2023-02-12T17:23:58;101361.81;;;17.35;23.06
56713;BME280;42589;45.536;9.032;2023-02-12T17:27:03;101391.44;;;17.44;23.24
56713;BME280;42589;45.536;9.032;2023-02-12T17:30:04;101407.97;;;17.31;23.56
56713;BME280;42589;45.536;9.032;2023-02-12T17:33:06;101387.03;;;17.69;23.49
56713;BME280;42589;45.536;9.032;2023-02-12T17:36:09;101411.47;;;17.49;23.81
56713;BME280;42589;45.536;9.032;2023-02-12T17:39:11;101419.63;;;17.13;24.48
56713;BME280;42589;45.536;9.032;2023-02-12T17:42:12;101415.16;;;17.04;24.47
56713;BME280;42589;45.536;9.032;2023-02-12T17:45:13;101427.88;;;17.64;23.75
56713;BME280;42589;45.536;9.032;2023-02-12T17:48:15;101420.75;;;17.11;24.48
56713;BME280;42589;45.536;9.032;2023-02-12T17:51:16;101423.13;;;17.32;24.68
56713;BME280;42589;45.536;9.032;2023-02-12T17:54:17;101430.97;;;16.89;24.98
56713;BME280;42589;45.536;9.032;2023-02-12T17:57:18;101403.50;;;16.96;24.74
56713;BME280;42589;45.536;9.032;2023-02-12T18:00:21;101432.28;;;17.03;25.08
56713;BME280;42589;45.536;9.032;2023-02-12T18:03:23;101441.53;;;17.27;24.87
56713;BME280;42589;45.536;9.032;2023-02-12T18:06:29;101379.41;;;16.86;25.26
56713;BME280;42589;45.536;9.032;2023-02-12T18:09:30;101371.09;;;16.25;25.76
56713;BME280;42589;45.536;9.032;2023-02-12T18:12:33;101436.34;;;16.71;26.02
56713;BME280;42589;45.536;9.032;2023-02-12T18:15:35;101431.59;;;17.01;25.56
56713;BME280;42589;45.536;9.032;2023-02-12T18:18:37;101457.00;;;17.07;25.70
56713;BME280;42589;45.536;9.032;2023-02-12T18:21:39;101459.06;;;16.95;25.96
56713;BME280;42589;45.536;9.032;2023-02-12T18:24:40;101446.69;;;16.66;25.96
56713;BME280;42589;45.536;9.032;2023-02-12T18:27:43;101470.75;;;17.04;25.76
56713;BME280;42589;45.536;9.032;2023-02-12T18:30:44;101469.72;;;16.87;25.96
56713;BME280;42589;45.536;9.032;2023-02-12T18:33:45;101474.44;;;16.85;26.16
56713;BME280;42589;45.536;9.032;2023-02-12T18:36:46;101477.56;;;16.80;26.34
56713;BME280;42589;45.536;9.032;2023-02-12T18:39:46;101460.47;;;16.54;27.00